createdAt,value
2023-05-02T00:01:55.837Z,101543.09
2023-05-02T00:04:23.454Z,101543.78
2023-05-02T00:06:55.275Z,101545.38
2023-05-02T00:09:22.440Z,101550.88
2023-05-02T00:11:52.508Z,101537.72
2023-05-02T00:14:19.540Z,101542.25
2023-05-02T00:16:46.912Z,101533.13
2023-05-02T00:19:13.918Z,101514.69
2023-05-02T00:21:49.409Z,101526.63
2023-05-02T00:24:18.307Z,101519.31
2023-05-02T00:26:45.146Z,101536.97
2023-05-02T00:29:12.123Z,101532.44
2023-05-02T00:31:41.384Z,101543.41
2023-05-02T00:34:08.726Z,101548.63
2023-05-02T00:36:35.760Z,101537.44
2023-05-02T00:39:03.023Z,101548.00
2023-05-02T00:41:29.908Z,101559.81
2023-05-02T00:43:57.134Z,101554.06
2023-05-02T00:46:24.051Z,101554.06
2023-05-02T00:48:51.332Z,101555.94
2023-05-02T00:51:18.641Z,101555.31
2023-05-02T00:53:45.932Z,101550.59
2023-05-02T00:56:12.885Z,101549.31
2023-05-02T00:58:41.432Z,101555.03
2023-05-02T01:01:14.126Z,101549.63
2023-05-02T01:04:26.957Z,101548.00
2023-05-02T01:07:30.140Z,101552.00
2023-05-02T01:10:10.283Z,101543.97
2023-05-02T01:12:43.301Z,101542.09
2023-05-02T01:15:18.462Z,101538.06
2023-05-02T01:17:47.639Z,101549.13
2023-05-02T01:20:19.865Z,101546.53
2023-05-02T01:22:48.582Z,101554.28
2023-05-02T01:25:39.487Z,101558.53
2023-05-02T01:28:22.317Z,101547.59
2023-05-02T01:30:51.097Z,101549.88
2023-05-02T01:33:19.451Z,101551.00
2023-05-02T01:35:50.509Z,101561.09
2023-05-02T01:38:19.472Z,101564.19
2023-05-02T01:40:48.046Z,101550.47
2023-05-02T01:43:17.375Z,101565.16
2023-05-02T01:45:45.974Z,101567.44
2023-05-02T01:48:15.323Z,101571.63
2023-05-02T01:50:44.909Z,101579.06
2023-05-02T01:53:14.052Z,101582.19
2023-05-02T01:55:43.966Z,101590.06
2023-05-02T01:58:12.578Z,101584.72
2023-05-02T02:00:40.725Z,101586.34
2023-05-02T02:03:09.697Z,101592.06
2023-05-02T02:05:37.999Z,101603.06
2023-05-02T02:08:05.400Z,101602.84
2023-05-02T02:10:37.781Z,101607.69
2023-05-02T02:13:11.535Z,101568.03
2023-05-02T02:15:41.994Z,101623.81
2023-05-02T02:18:13.980Z,101629.09
2023-05-02T02:20:46.910Z,101638.09
2023-05-02T02:23:15.849Z,101639.16
2023-05-02T02:25:44.413Z,101642.75
2023-05-02T02:28:11.571Z,101664.78
2023-05-02T02:30:38.662Z,101662.41
2023-05-02T02:33:05.617Z,101667.78
2023-05-02T02:35:41.157Z,101667.28
2023-05-02T02:38:40.769Z,101683.31
2023-05-02T02:41:16.829Z,101684.19
2023-05-02T02:44:13.470Z,101682.50
2023-05-02T02:46:50.405Z,101694.84
2023-05-02T02:49:29.508Z,101700.72
2023-05-02T02:52:12.546Z,101681.22
2023-05-02T02:54:57.665Z,101702.94
2023-05-02T02:57:37.231Z,101726.97
2023-05-02T03:00:27.659Z,101727.44
2023-05-02T03:02:56.906Z,101738.56
2023-05-02T03:05:24.561Z,101734.50
2023-05-02T03:07:52.241Z,101736.69
2023-05-02T03:10:19.391Z,101748.03
2023-05-02T03:12:46.429Z,101754.59
2023-05-02T03:15:32.271Z,101765.75
2023-05-02T03:17:59.466Z,101764.25
2023-05-02T03:20:26.389Z,101769.00
2023-05-02T03:22:53.347Z,101772.44
2023-05-02T03:25:20.370Z,101783.94
2023-05-02T03:27:47.279Z,101781.44
2023-05-02T03:30:14.252Z,101791.06
2023-05-02T03:32:41.292Z,101788.53
2023-05-02T03:35:08.750Z,101799.47
2023-05-02T03:37:35.903Z,101802.88
2023-05-02T03:40:03.359Z,101803.25
2023-05-02T03:42:30.648Z,101807.38
2023-05-02T03:44:57.742Z,101809.69
2023-05-02T03:47:24.506Z,101814.41
2023-05-02T03:49:53.342Z,101810.72
2023-05-02T03:52:20.224Z,101818.25
2023-05-02T03:54:47.237Z,101818.28
2023-05-02T03:57:14.242Z,101808.84
2023-05-02T03:59:43.208Z,101835.78
2023-05-02T04:02:11.629Z,101847.16
2023-05-02T04:04:38.894Z,101838.72
2023-05-02T04:07:08.123Z,101838.44
2023-05-02T04:09:35.088Z,101843.31
2023-05-02T04:12:02.277Z,101851.69
2023-05-02T04:14:29.268Z,101845.06
2023-05-02T04:16:56.413Z,101849.97
2023-05-02T04:19:23.397Z,101860.78
2023-05-02T04:21:53.162Z,101855.00
2023-05-02T04:24:20.217Z,101870.56
2023-05-02T04:26:48.862Z,101869.47
2023-05-02T04:29:15.890Z,101879.16
2023-05-02T04:31:43.353Z,101886.34
2023-05-02T04:34:13.243Z,101885.81
2023-05-02T04:36:40.359Z,101895.41
2023-05-02T04:39:08.031Z,101900.69
2023-05-02T04:41:35.166Z,101901.25
2023-05-02T04:44:02.225Z,101910.78
2023-05-02T04:46:29.122Z,101918.53
2023-05-02T04:48:56.250Z,101909.94
2023-05-02T04:51:23.248Z,101912.97
2023-05-02T04:53:50.738Z,101916.91
2023-05-02T04:56:17.810Z,101930.69
2023-05-02T04:58:44.732Z,101934.56
2023-05-02T05:01:11.846Z,101931.81
2023-05-02T05:03:38.990Z,101938.75
2023-05-02T05:06:06.340Z,101942.09
2023-05-02T05:08:34.095Z,101951.22
2023-05-02T05:11:01.194Z,101945.66
2023-05-02T05:13:28.746Z,101954.06
2023-05-02T05:15:55.785Z,101953.84
2023-05-02T05:18:25.226Z,101961.88
2023-05-02T05:20:54.216Z,101968.22
2023-05-02T05:23:21.360Z,101967.69
2023-05-02T05:25:48.467Z,101974.34
2023-05-02T05:28:15.392Z,101975.75
2023-05-02T05:30:42.430Z,101982.16
2023-05-02T05:33:09.617Z,101981.28
2023-05-02T05:35:36.717Z,101985.97
2023-05-02T05:38:03.576Z,101992.66
2023-05-02T05:40:30.515Z,101999.63
2023-05-02T05:42:57.675Z,102006.00
2023-05-02T05:45:24.659Z,102002.09
2023-05-02T05:47:51.843Z,102004.00
2023-05-02T05:50:18.925Z,102001.91
2023-05-02T05:52:45.818Z,102009.16
2023-05-02T05:55:13.028Z,102003.72
2023-05-02T05:57:40.023Z,102004.63
2023-05-02T06:00:08.486Z,102023.41
2023-05-02T06:02:35.621Z,102022.56
2023-05-02T06:05:02.529Z,102033.09
2023-05-02T06:07:29.562Z,102031.13
2023-05-02T06:09:56.537Z,102030.56
2023-05-02T06:12:23.447Z,102036.94
2023-05-02T06:14:50.377Z,102036.28
2023-05-02T06:17:17.090Z,102035.97
2023-05-02T06:19:43.979Z,102036.00
2023-05-02T06:22:14.029Z,102039.44
2023-05-02T06:24:41.019Z,102051.22
2023-05-02T06:27:07.866Z,102052.19
2023-05-02T06:29:34.746Z,102054.31
2023-05-02T06:32:01.667Z,102059.97
2023-05-02T06:34:28.672Z,102073.03
2023-05-02T06:36:58.998Z,102071.91
2023-05-02T06:39:26.218Z,102078.84
2023-05-02T06:41:58.586Z,102083.31
2023-05-02T06:44:25.755Z,102093.78
2023-05-02T06:46:52.653Z,102086.66
2023-05-02T06:49:19.684Z,102094.06
2023-05-02T06:51:46.598Z,102104.97
2023-05-02T06:54:15.048Z,102109.63
2023-05-02T06:56:42.729Z,102111.63
2023-05-02T06:59:12.400Z,102099.44
2023-05-02T07:01:39.399Z,102121.22
2023-05-02T07:04:06.728Z,102114.19
2023-05-02T07:06:33.783Z,102119.16
2023-05-02T07:09:00.664Z,102124.22
2023-05-02T07:11:28.459Z,102115.47
2023-05-02T07:13:55.443Z,102126.13
2023-05-02T07:16:22.528Z,102140.81
2023-05-02T07:18:49.412Z,102135.19
2023-05-02T07:21:16.345Z,102137.38
2023-05-02T07:23:43.289Z,102144.47
2023-05-02T07:26:10.213Z,102148.44
2023-05-02T07:28:37.074Z,102150.41
2023-05-02T07:31:04.744Z,102144.53
2023-05-02T07:33:31.694Z,102152.72
2023-05-02T07:35:58.797Z,102161.97
2023-05-02T07:38:28.256Z,102166.84
2023-05-02T07:40:59.064Z,102159.22
2023-05-02T07:43:26.657Z,102173.78
2023-05-02T07:45:53.488Z,102180.50
2023-05-02T07:48:20.548Z,102173.63
2023-05-02T07:50:47.432Z,102172.47
2023-05-02T07:53:14.448Z,102178.06
2023-05-02T07:55:41.310Z,102161.78
2023-05-02T07:58:08.363Z,102171.19
2023-05-02T08:00:35.553Z,102177.00
2023-05-02T08:03:02.759Z,102169.91
2023-05-02T08:05:29.947Z,102169.44
2023-05-02T08:07:56.916Z,102171.81
2023-05-02T08:10:24.566Z,102184.22
2023-05-02T08:12:51.718Z,102177.66
2023-05-02T08:15:18.845Z,102187.81
2023-05-02T08:17:48.122Z,102199.38
2023-05-02T08:20:15.116Z,102181.66
2023-05-02T08:22:42.017Z,102190.50
2023-05-02T08:25:09.345Z,102198.53
2023-05-02T08:27:36.216Z,102179.38
2023-05-02T08:30:03.721Z,102198.28
2023-05-02T08:32:33.041Z,102199.66
2023-05-02T08:34:59.910Z,102202.44
2023-05-02T08:37:26.665Z,102176.63
2023-05-02T08:39:53.582Z,102178.28
2023-05-02T08:42:21.827Z,102186.47
2023-05-02T08:44:52.779Z,102204.34
2023-05-02T08:47:21.929Z,102211.41
2023-05-02T08:49:50.146Z,102216.84
2023-05-02T08:52:20.278Z,102229.47
2023-05-02T08:54:47.912Z,102238.06
2023-05-02T08:57:15.957Z,102244.34
2023-05-02T08:59:43.497Z,102249.44
2023-05-02T09:02:35.278Z,102255.38
2023-05-02T09:05:07.852Z,102238.25
2023-05-02T09:07:48.571Z,102235.06
2023-05-02T09:10:16.127Z,102226.91
2023-05-02T09:12:42.989Z,102220.00
2023-05-02T09:15:11.820Z,102220.31
2023-05-02T09:17:47.783Z,102211.22
2023-05-02T09:20:16.296Z,102223.16
2023-05-02T09:22:51.284Z,102230.75
2023-05-02T09:25:19.659Z,102252.31
2023-05-02T09:28:05.283Z,102270.03
2023-05-02T09:30:33.271Z,102275.00
2023-05-02T09:33:00.532Z,102276.00
2023-05-02T09:35:27.650Z,102262.91
2023-05-02T09:37:58.555Z,102276.47
2023-05-02T09:40:27.667Z,102292.94
2023-05-02T09:42:54.788Z,102279.84
2023-05-02T09:45:26.963Z,102263.97
2023-05-02T09:47:54.475Z,102246.81
2023-05-02T09:50:41.557Z,102258.06
2023-05-02T09:53:12.214Z,102258.09
2023-05-02T09:55:39.447Z,102257.69
2023-05-02T09:58:07.022Z,102273.28
2023-05-02T10:00:46.749Z,102281.53
2023-05-02T10:03:20.350Z,102284.38
2023-05-02T10:05:48.075Z,102216.66
2023-05-02T10:08:18.894Z,102276.91
2023-05-02T10:10:59.090Z,102262.56
2023-05-02T10:13:32.252Z,102256.94
2023-05-02T10:16:08.670Z,102268.84
2023-05-02T10:18:59.101Z,102272.91
2023-05-02T10:21:30.113Z,102256.69
2023-05-02T10:23:58.139Z,102270.81
2023-05-02T10:26:25.842Z,102290.44
2023-05-02T10:28:54.373Z,102297.03
2023-05-02T10:31:25.308Z,102298.59
2023-05-02T10:33:52.677Z,102290.66
2023-05-02T10:36:23.939Z,102284.84
2023-05-02T10:38:51.466Z,102303.25
2023-05-02T10:41:26.858Z,102297.50
2023-05-02T10:43:54.532Z,102316.03
2023-05-02T10:46:33.322Z,102319.22
2023-05-02T10:49:05.151Z,102333.84
2023-05-02T10:51:33.435Z,102337.28
2023-05-02T10:54:22.445Z,102332.34
2023-05-02T10:57:16.075Z,102346.63
2023-05-02T10:59:45.349Z,102344.06
2023-05-02T11:02:25.558Z,102344.91
2023-05-02T11:05:01.283Z,102348.91
2023-05-02T11:07:29.592Z,102352.38
2023-05-02T11:10:18.082Z,102345.72
2023-05-02T11:12:55.452Z,102355.91
2023-05-02T11:15:28.386Z,102352.13
2023-05-02T11:18:14.320Z,102346.06
2023-05-02T11:20:42.946Z,102346.28
2023-05-02T11:23:16.372Z,102343.63
2023-05-02T11:25:45.633Z,102335.28
2023-05-02T11:28:39.553Z,102339.66
2023-05-02T11:31:07.948Z,102327.09
2023-05-02T11:33:34.952Z,102344.94
2023-05-02T11:36:02.214Z,102364.88
2023-05-02T11:38:37.892Z,102371.28
2023-05-02T11:41:08.068Z,102379.13
2023-05-02T11:43:35.428Z,102358.59
2023-05-02T11:46:03.214Z,102346.97
2023-05-02T11:48:31.068Z,102355.69
2023-05-02T11:51:03.773Z,102356.97
2023-05-02T11:53:33.948Z,102345.41
2023-05-02T11:56:05.144Z,102359.03
2023-05-02T11:58:33.856Z,102354.09
2023-05-02T12:01:17.637Z,102356.06
2023-05-02T12:03:45.440Z,102374.19
2023-05-02T12:06:19.677Z,102386.47
2023-05-02T12:08:47.018Z,102395.94
2023-05-02T12:11:16.359Z,102394.06
2023-05-02T12:13:48.401Z,102391.56
2023-05-02T12:16:16.740Z,102400.06
2023-05-02T12:18:44.359Z,102398.69
2023-05-02T12:21:11.736Z,102389.75
2023-05-02T12:23:40.429Z,102412.19
2023-05-02T12:26:22.430Z,102414.34
2023-05-02T12:28:58.549Z,102419.19
2023-05-02T12:31:27.572Z,102416.84
2023-05-02T12:33:58.057Z,102409.91
2023-05-02T12:36:25.297Z,102414.09
2023-05-02T12:38:55.112Z,102411.44
2023-05-02T12:41:51.840Z,102429.06
2023-05-02T12:44:37.294Z,102426.06
2023-05-02T12:47:04.421Z,102427.13
2023-05-02T12:49:48.665Z,102429.25
2023-05-02T12:52:16.237Z,102416.75
2023-05-02T12:54:44.495Z,102429.84
2023-05-02T12:57:11.874Z,102437.50
2023-05-02T12:59:41.040Z,102440.59
2023-05-02T13:02:08.103Z,102430.44
2023-05-02T13:04:40.447Z,102431.91
2023-05-02T13:07:08.197Z,102429.59
2023-05-02T13:09:35.174Z,102437.41
2023-05-02T13:12:03.898Z,102422.25
2023-05-02T13:14:31.081Z,102449.50
2023-05-02T13:17:01.113Z,102445.97
2023-05-02T13:19:31.506Z,102457.63
2023-05-02T13:21:58.553Z,102447.03
2023-05-02T13:24:26.008Z,102447.97
2023-05-02T13:26:52.989Z,102458.16
2023-05-02T13:29:19.991Z,102424.72
2023-05-02T13:31:47.104Z,102469.22
2023-05-02T13:34:14.040Z,102466.59
2023-05-02T13:36:46.369Z,102476.50
2023-05-02T13:39:14.218Z,102484.84
2023-05-02T13:41:41.791Z,102480.66
2023-05-02T13:44:09.631Z,102483.88
2023-05-02T13:46:38.155Z,102437.59
2023-05-02T13:49:05.755Z,102485.38
2023-05-02T13:51:33.043Z,102483.31
2023-05-02T13:54:00.545Z,102494.84
2023-05-02T13:56:27.838Z,102493.22
2023-05-02T13:58:54.989Z,102481.72
2023-05-02T14:01:22.187Z,102488.78
2023-05-02T14:03:49.204Z,102480.03
2023-05-02T14:06:16.739Z,102472.59
2023-05-02T14:08:46.898Z,102476.19
2023-05-02T14:11:15.018Z,102485.28
2023-05-02T14:13:41.815Z,102480.34
2023-05-02T14:16:08.888Z,102479.22
2023-05-02T14:18:36.076Z,102484.34
2023-05-02T14:21:04.505Z,102487.16
2023-05-02T14:23:31.421Z,102478.38
2023-05-02T14:25:58.522Z,102492.13
2023-05-02T14:28:27.366Z,102491.16
2023-05-02T14:30:54.299Z,102498.94
2023-05-02T14:33:21.568Z,102491.66
2023-05-02T14:35:49.598Z,102497.63
2023-05-02T14:38:16.600Z,102505.91
2023-05-02T14:40:43.641Z,102515.22
2023-05-02T14:43:13.537Z,102510.06
2023-05-02T14:45:40.706Z,102512.81
2023-05-02T14:48:08.812Z,102518.63
2023-05-02T14:50:37.568Z,102515.63
2023-05-02T14:53:04.586Z,102513.22
2023-05-02T14:55:36.850Z,102516.50
2023-05-02T14:58:03.709Z,102519.00
2023-05-02T15:00:30.737Z,102509.88
2023-05-02T15:02:57.779Z,102505.94
2023-05-02T15:05:24.819Z,102513.69
2023-05-02T15:07:51.945Z,102524.16
2023-05-02T15:10:18.795Z,102513.69
2023-05-02T15:12:47.157Z,102520.91
2023-05-02T15:15:15.350Z,102519.97
2023-05-02T15:17:42.249Z,102518.69
2023-05-02T15:20:09.706Z,102519.50
2023-05-02T15:22:36.647Z,102521.47
2023-05-02T15:25:05.332Z,102531.47
2023-05-02T15:27:35.086Z,102529.28
2023-05-02T15:30:03.742Z,102534.94
2023-05-02T15:32:30.936Z,102542.75
2023-05-02T15:34:57.872Z,102545.22
2023-05-02T15:37:24.778Z,102545.72
2023-05-02T15:39:52.092Z,102537.22
2023-05-02T15:42:19.109Z,102563.94
2023-05-02T15:44:46.061Z,102555.44
2023-05-02T15:47:13.376Z,102560.03
2023-05-02T15:49:40.947Z,102557.59
2023-05-02T15:52:07.748Z,102565.31
2023-05-02T15:54:34.645Z,102543.84
2023-05-02T15:57:02.775Z,102558.38
2023-05-02T15:59:29.685Z,102560.09
2023-05-02T16:01:56.664Z,102575.31
2023-05-02T16:04:25.443Z,102565.22
2023-05-02T16:06:52.644Z,102584.13
2023-05-02T16:09:19.723Z,102584.00
2023-05-02T16:11:49.527Z,102582.56
2023-05-02T16:14:16.508Z,102591.53
2023-05-02T16:16:43.483Z,102593.09
2023-05-02T16:19:13.961Z,102587.84
2023-05-02T16:21:42.496Z,102590.63
2023-05-02T16:24:13.210Z,102589.53
2023-05-02T16:26:40.335Z,102596.81
2023-05-02T16:29:07.326Z,102589.25
2023-05-02T16:31:35.404Z,102596.59
2023-05-02T16:34:03.294Z,102590.38
2023-05-02T16:36:31.926Z,102588.66
2023-05-02T16:39:01.521Z,102574.72
2023-05-02T16:41:28.541Z,102598.13
2023-05-02T16:43:55.532Z,102592.31
2023-05-02T16:46:23.211Z,102595.09
2023-05-02T16:48:50.276Z,102591.53
2023-05-02T16:51:17.358Z,102613.41
2023-05-02T16:53:46.592Z,102611.75
2023-05-02T16:56:13.898Z,102601.53
2023-05-02T16:58:41.123Z,102613.78
2023-05-02T17:01:08.796Z,102612.47
2023-05-02T17:03:35.841Z,102612.09
2023-05-02T17:06:03.129Z,102611.00
2023-05-02T17:08:31.127Z,102624.75
2023-05-02T17:10:58.157Z,102619.41
2023-05-02T17:13:25.189Z,102619.91
2023-05-02T17:15:54.012Z,102598.94
2023-05-02T17:18:22.135Z,102626.69
2023-05-02T17:20:49.530Z,102627.13
2023-05-02T17:23:16.574Z,102622.53
2023-05-02T17:25:43.572Z,102620.53
2023-05-02T17:28:11.356Z,102618.59
2023-05-02T17:30:38.743Z,102623.03
2023-05-02T17:33:08.790Z,102623.22
2023-05-02T17:35:35.671Z,102620.53
2023-05-02T17:38:02.646Z,102631.44
2023-05-02T17:40:30.060Z,102635.75
2023-05-02T17:42:59.000Z,102634.91
2023-05-02T17:45:29.314Z,102637.38
2023-05-02T17:47:56.776Z,102646.41
2023-05-02T17:50:24.127Z,102647.00
2023-05-02T17:52:53.426Z,102643.19
2023-05-02T17:55:20.399Z,102642.94
2023-05-02T17:57:47.743Z,102651.91
2023-05-02T18:00:15.210Z,102649.69
2023-05-02T18:02:42.457Z,102654.97
2023-05-02T18:05:09.937Z,102665.00
2023-05-02T18:07:37.050Z,102658.31
2023-05-02T18:10:05.412Z,102662.75
2023-05-02T18:12:33.008Z,102662.47
2023-05-02T18:15:00.846Z,102663.34
2023-05-02T18:17:28.191Z,102665.03
2023-05-02T18:19:55.406Z,102674.50
2023-05-02T18:22:22.600Z,102675.53
2023-05-02T18:24:50.184Z,102677.72
2023-05-02T18:27:18.028Z,102686.59
2023-05-02T18:29:45.120Z,102684.56
2023-05-02T18:32:13.144Z,102685.69
2023-05-02T18:34:40.442Z,102686.97
2023-05-02T18:37:07.389Z,102686.03
2023-05-02T18:39:35.073Z,102684.78
2023-05-02T18:42:05.857Z,102680.72
2023-05-02T18:44:32.922Z,102682.09
2023-05-02T18:46:59.911Z,102690.00
2023-05-02T18:49:27.357Z,102686.72
2023-05-02T18:51:54.944Z,102691.81
2023-05-02T18:54:23.580Z,102688.59
2023-05-02T18:56:50.717Z,102695.75
2023-05-02T18:59:19.147Z,102703.81
2023-05-02T19:01:48.678Z,102706.47
2023-05-02T19:04:15.956Z,102700.09
2023-05-02T19:06:43.115Z,102699.84
2023-05-02T19:09:10.199Z,102689.03
2023-05-02T19:11:37.235Z,102717.63
2023-05-02T19:14:04.430Z,102711.47
2023-05-02T19:16:31.821Z,102706.34
2023-05-02T19:18:58.972Z,102709.56
2023-05-02T19:21:26.123Z,102730.22
2023-05-02T19:23:53.217Z,102731.81
2023-05-02T19:26:20.521Z,102729.97
2023-05-02T19:28:47.382Z,102735.16
2023-05-02T19:31:17.442Z,102752.06
2023-05-02T19:33:51.528Z,102759.00
2023-05-02T19:36:23.600Z,102758.00
2023-05-02T19:38:55.968Z,102758.72
2023-05-02T19:41:22.944Z,102754.97
2023-05-02T19:43:50.464Z,102749.72
2023-05-02T19:46:18.415Z,102752.59
2023-05-02T19:48:46.135Z,102754.97
2023-05-02T19:51:13.505Z,102760.66
2023-05-02T19:53:45.772Z,102750.69
2023-05-02T19:56:12.724Z,102758.09
2023-05-02T19:58:39.784Z,102761.88
2023-05-02T20:01:06.743Z,102706.63
2023-05-02T20:03:34.990Z,102769.91
2023-05-02T20:06:02.595Z,102775.91
2023-05-02T20:08:31.638Z,102774.78
2023-05-02T20:11:01.246Z,102776.91
2023-05-02T20:13:28.333Z,102772.19
2023-05-02T20:15:55.387Z,102773.22
2023-05-02T20:18:22.379Z,102779.00
2023-05-02T20:20:49.286Z,102771.09
2023-05-02T20:23:16.510Z,102776.50
2023-05-02T20:25:44.164Z,102772.41
2023-05-02T20:28:11.291Z,102763.88
2023-05-02T20:30:40.010Z,102776.19
2023-05-02T20:33:14.958Z,102781.00
2023-05-02T20:35:43.948Z,102780.28
2023-05-02T20:38:13.772Z,102773.09
2023-05-02T20:40:43.020Z,102776.94
2023-05-02T20:43:10.250Z,102765.28
2023-05-02T20:45:39.151Z,102769.97
2023-05-02T20:48:06.433Z,102778.50
2023-05-02T20:50:35.242Z,102779.34
2023-05-02T20:53:02.253Z,102780.56
2023-05-02T20:55:29.380Z,102792.06
2023-05-02T20:57:56.869Z,102782.84
2023-05-02T21:00:23.901Z,102787.84
2023-05-02T21:02:51.741Z,102786.84
2023-05-02T21:05:18.785Z,102778.31
2023-05-02T21:07:46.058Z,102792.50
2023-05-02T21:10:13.160Z,102792.44
2023-05-02T21:12:40.124Z,102795.31
2023-05-02T21:15:07.935Z,102766.44
2023-05-02T21:17:35.100Z,102793.19
2023-05-02T21:20:02.456Z,102798.84
2023-05-02T21:22:29.943Z,102790.38
2023-05-02T21:24:56.937Z,102784.19
2023-05-02T21:27:24.117Z,102798.72
2023-05-02T21:29:53.535Z,102804.03
2023-05-02T21:32:21.115Z,102805.44
2023-05-02T21:34:48.454Z,102799.16
2023-05-02T21:37:15.630Z,102788.59
2023-05-02T21:39:42.499Z,102802.78
2023-05-02T21:42:09.459Z,102800.72
2023-05-02T21:44:36.685Z,102810.69
2023-05-02T21:47:06.238Z,102808.09
2023-05-02T21:49:33.150Z,102809.16
2023-05-02T21:52:06.003Z,102811.75
2023-05-02T21:54:33.357Z,102816.25
2023-05-02T21:57:00.910Z,102818.75
2023-05-02T21:59:27.979Z,102817.59
2023-05-02T22:01:54.909Z,102749.78
2023-05-02T22:04:22.357Z,102808.72
2023-05-02T22:06:53.104Z,102812.38
2023-05-02T22:09:20.982Z,102786.44
2023-05-02T22:11:47.992Z,102806.56
2023-05-02T22:14:14.931Z,102806.22
2023-05-02T22:16:41.784Z,102805.44
2023-05-02T22:19:11.769Z,102807.72
2023-05-02T22:21:38.735Z,102811.94
2023-05-02T22:24:05.978Z,102817.31
2023-05-02T22:26:32.923Z,102815.38
2023-05-02T22:28:59.883Z,102817.72
2023-05-02T22:31:27.505Z,102816.06
2023-05-02T22:33:54.543Z,102819.03
2023-05-02T22:36:21.487Z,102818.13
2023-05-02T22:38:48.382Z,102818.81
2023-05-02T22:41:15.362Z,102829.72
2023-05-02T22:43:42.403Z,102824.97
2023-05-02T22:46:10.456Z,102820.97
2023-05-02T22:48:37.685Z,102830.84
2023-05-02T22:51:04.888Z,102827.09
2023-05-02T22:53:31.829Z,102836.75
2023-05-02T22:55:58.939Z,102829.50
2023-05-02T22:58:26.159Z,102838.50
2023-05-02T23:00:56.316Z,102836.22
2023-05-02T23:03:23.277Z,102833.09
2023-05-02T23:05:50.368Z,102832.69
2023-05-02T23:08:17.202Z,102828.41
2023-05-02T23:10:44.534Z,102837.28
2023-05-02T23:13:11.439Z,102837.69
2023-05-02T23:15:38.519Z,102840.13
2023-05-02T23:18:06.246Z,102843.78
2023-05-02T23:20:36.121Z,102838.94
2023-05-02T23:23:04.075Z,102837.66
2023-05-02T23:25:31.042Z,102845.53
2023-05-02T23:27:57.954Z,102840.72
2023-05-02T23:30:24.918Z,102843.81
2023-05-02T23:32:51.883Z,102845.03
2023-05-02T23:35:19.363Z,102850.91
2023-05-02T23:37:46.520Z,102847.16
2023-05-02T23:40:13.677Z,102846.00
2023-05-02T23:42:41.115Z,102853.03
2023-05-02T23:45:09.334Z,102843.94
2023-05-02T23:47:38.256Z,102849.69
2023-05-02T23:50:06.043Z,102858.56
2023-05-02T23:52:33.670Z,102852.84
2023-05-02T23:55:00.786Z,102853.44
2023-05-02T23:57:30.528Z,102855.59
2023-05-02T23:59:57.609Z,102853.66
